Time;durP1;ratioP1;P1;durP2;ratioP2;P2;SDS_P1;SDS_P2;PMS_P1;PMS_P2;Temp;Humidity;BMP_temperature;BMP_pressure;BME280_temperature;BME280_humidity;BME280_pressure;Samples;Min_cycle;Max_cycle;Signal;HPM_P1;HPM_P2
2023/11/10 00:02:08;;;;;;;2.40;1.77;;;12.50;99.90;;;;;;5096331;28;20219;-81
2023/11/10 00:04:36;;;;;;;1.58;1.45;;;12.50;99.90;;;;;;5095831;28;20731;-81
2023/11/10 00:07:04;;;;;;;1.90;1.70;;;12.50;99.90;;;;;;5095239;28;20222;-78
2023/11/10 00:09:31;;;;;;;2.10;2.00;;;12.40;99.90;;;;;;5095553;28;20699;-78
2023/11/10 00:11:58;;;;;;;1.63;1.50;;;12.30;99.90;;;;;;5095565;28;20215;-80
2023/11/10 00:14:26;;;;;;;5.40;4.88;;;12.30;99.90;;;;;;5095958;28;20227;-78
2023/11/10 00:16:53;;;;;;;6.85;4.75;;;12.30;99.90;;;;;;5095147;28;20288;-78
2023/11/10 00:19:20;;;;;;;6.82;5.13;;;12.30;99.90;;;;;;5095713;28;20302;-78
2023/11/10 00:21:49;;;;;;;11.63;7.60;;;12.30;99.90;;;;;;5095302;28;20302;-80
2023/11/10 00:24:18;;;;;;;4.00;3.60;;;12.30;99.90;;;;;;5095695;28;20297;-80
2023/11/10 00:26:46;;;;;;;2.70;2.50;;;12.30;99.90;;;;;;5095204;28;20224;-80
2023/11/10 00:29:13;;;;;;;4.82;1.80;;;12.30;99.90;;;;;;5095351;28;20246;-77
2023/11/10 00:31:40;;;;;;;4.05;2.50;;;12.30;99.90;;;;;;5095862;28;20219;-77
2023/11/10 00:34:07;;;;;;;3.67;1.60;;;12.30;99.90;;;;;;5095060;28;20307;-80
2023/11/10 00:36:34;;;;;;;2.15;1.88;;;12.30;99.90;;;;;;5095133;28;20251;-77
2023/11/10 00:39:01;;;;;;;2.50;2.30;;;12.30;99.90;;;;;;5095018;28;20738;-80
2023/11/10 00:41:29;;;;;;;2.45;1.48;;;12.30;99.90;;;;;;5095383;28;20272;-77
2023/11/10 00:43:56;;;;;;;2.10;1.50;;;12.30;99.90;;;;;;5094610;28;20251;-80
2023/11/10 00:46:24;;;;;;;4.03;2.08;;;12.20;99.90;;;;;;5094956;28;20231;-77
2023/11/10 00:48:50;;;;;;;2.90;2.17;;;12.20;99.90;;;;;;5094832;28;20571;-80
2023/11/10 00:51:17;;;;;;;2.00;1.80;;;12.20;99.90;;;;;;5095411;28;20284;-77
2023/11/10 00:53:45;;;;;;;1.80;1.70;;;12.20;99.90;;;;;;5094388;28;20258;-78
2023/11/10 00:56:11;;;;;;;2.45;1.67;;;12.20;99.90;;;;;;5095289;28;20230;-77
2023/11/10 00:58:40;;;;;;;1.83;1.73;;;12.20;99.90;;;;;;5095136;28;20233;-78
2023/11/10 01:01:08;;;;;;;1.95;1.80;;;12.20;99.90;;;;;;5092358;28;20230;-78
2023/11/10 01:03:35;;;;;;;2.17;1.65;;;12.10;99.90;;;;;;5091394;28;20230;-78
2023/11/10 01:06:02;;;;;;;3.17;1.80;;;12.10;99.90;;;;;;5093739;28;20231;-78
2023/11/10 01:08:29;;;;;;;1.73;1.63;;;12.10;99.90;;;;;;5094794;28;20249;-83
2023/11/10 01:11:22;;;;;;;2.47;1.50;;;12.00;99.90;;;;;;5093330;28;20255;-83
2023/11/10 01:13:55;;;;;;;2.70;1.83;;;12.00;99.90;;;;;;5093744;28;20272;-80
2023/11/10 01:16:23;;;;;;;1.70;1.60;;;12.00;99.90;;;;;;5094403;28;20231;-79
2023/11/10 01:18:50;;;;;;;1.60;1.50;;;12.00;99.90;;;;;;5091852;28;20219;-80
2023/11/10 01:21:18;;;;;;;3.55;1.95;;;12.00;99.90;;;;;;5094792;28;20306;-79
2023/11/10 01:23:45;;;;;;;1.70;1.60;;;11.90;99.90;;;;;;5094078;28;20314;-79
2023/11/10 01:26:13;;;;;;;1.98;1.75;;;11.90;99.90;;;;;;5094048;28;20219;-80
2023/11/10 01:28:40;;;;;;;2.72;2.53;;;11.90;99.90;;;;;;5094260;28;20272;-80
2023/11/10 01:31:09;;;;;;;3.88;2.10;;;11.90;99.90;;;;;;5093569;28;20219;-79
2023/11/10 01:33:36;;;;;;;1.90;1.80;;;11.90;99.90;;;;;;5094168;28;20215;-79
2023/11/10 01:36:04;;;;;;;2.42;2.22;;;11.90;99.90;;;;;;5092613;28;20280;-79
2023/11/10 01:38:31;;;;;;;1.75;1.50;;;11.90;99.90;;;;;;5094254;28;20215;-83
2023/11/10 01:40:58;;;;;;;1.45;1.30;;;11.80;99.90;;;;;;5079653;28;20232;-83
2023/11/10 01:43:29;;;;;;;1.83;1.73;;;11.80;99.90;;;;;;5088205;28;20228;-79
2023/11/10 01:45:59;;;;;;;2.88;1.63;;;11.80;99.90;;;;;;5071555;28;20609;-80
2023/11/10 01:48:28;;;;;;;2.72;2.00;;;11.80;99.90;;;;;;5080525;28;20226;-80
2023/11/10 01:50:55;;;;;;;2.25;1.60;;;11.70;99.90;;;;;;5073762;28;20231;-80
2023/11/10 01:53:23;;;;;;;2.00;1.80;;;11.70;99.90;;;;;;5073219;28;20228;-80
2023/11/10 01:55:51;;;;;;;2.47;2.20;;;11.70;99.90;;;;;;5073638;28;20224;-80
2023/11/10 01:58:18;;;;;;;2.42;1.50;;;11.70;99.90;;;;;;5072486;28;20718;-80
2023/11/10 02:00:51;;;;;;;1.73;1.63;;;11.70;99.90;;;;;;5073621;28;20296;-80
2023/11/10 02:03:18;;;;;;;1.50;1.30;;;11.80;99.90;;;;;;5072740;28;20307;-79
2023/11/10 02:05:52;;;;;;;1.98;1.23;;;11.70;99.90;;;;;;5073556;28;20228;-79
2023/11/10 02:08:19;;;;;;;2.00;1.80;;;11.70;99.90;;;;;;5073120;28;20228;-80
2023/11/10 02:10:47;;;;;;;2.25;1.70;;;11.70;99.90;;;;;;5072944;28;20303;-80
2023/11/10 02:13:22;;;;;;;2.40;1.40;;;11.70;99.90;;;;;;5077766;28;20227;-80
2023/11/10 02:15:49;;;;;;;2.10;1.45;;;11.70;99.90;;;;;;5073394;28;20253;-80
2023/11/10 02:18:16;;;;;;;1.90;1.77;;;11.70;99.90;;;;;;5073483;28;20319;-80
2023/11/10 02:20:45;;;;;;;2.30;2.10;;;11.60;99.90;;;;;;5073535;28;20257;-80
2023/11/10 02:23:16;;;;;;;2.00;1.67;;;11.60;99.90;;;;;;5092047;28;20619;-83
2023/11/10 02:25:47;;;;;;;1.50;1.40;;;11.70;99.90;;;;;;5093265;28;20228;-84
2023/11/10 02:28:14;;;;;;;3.70;1.38;;;11.60;99.90;;;;;;5092776;28;20280;-83
2023/11/10 02:30:41;;;;;;;1.63;1.50;;;11.60;99.90;;;;;;5092132;28;20277;-83
2023/11/10 02:33:08;;;;;;;2.67;1.67;;;11.60;99.90;;;;;;5093142;28;20251;-84
2023/11/10 02:35:36;;;;;;;2.20;1.30;;;11.70;99.90;;;;;;5092379;28;20306;-83
2023/11/10 02:38:03;;;;;;;3.40;1.88;;;11.60;99.90;;;;;;5093655;28;20219;-84
2023/11/10 02:40:32;;;;;;;3.83;1.58;;;11.60;99.90;;;;;;5092354;28;20223;-83
2023/11/10 02:43:04;;;;;;;3.63;1.30;;;11.60;99.90;;;;;;5073282;28;20224;-83
2023/11/10 02:45:30;;;;;;;2.15;1.40;;;11.50;99.90;;;;;;5072660;28;20757;-83
2023/11/10 02:47:57;;;;;;;3.28;1.67;;;11.50;99.90;;;;;;5072971;28;20306;-83
2023/11/10 02:50:24;;;;;;;1.98;1.48;;;11.50;99.90;;;;;;5072562;28;20230;-83
2023/11/10 02:52:52;;;;;;;5.13;1.60;;;11.50;99.90;;;;;;5073220;28;20227;-79
2023/11/10 02:55:19;;;;;;;1.40;1.30;;;11.50;99.90;;;;;;5072427;28;20232;-79
2023/11/10 02:57:45;;;;;;;1.50;1.40;;;11.50;99.90;;;;;;5072837;28;20666;-79
2023/11/10 03:00:15;;;;;;;2.72;1.52;;;11.50;99.90;;;;;;5073227;28;20285;-83
2023/11/10 03:02:45;;;;;;;2.60;2.38;;;11.50;99.90;;;;;;5073352;28;20226;-82
2023/11/10 03:05:12;;;;;;;2.92;2.28;;;11.50;99.90;;;;;;5076514;28;20228;-82
2023/11/10 03:07:39;;;;;;;4.13;1.63;;;11.50;99.90;;;;;;5072668;28;20713;-83
2023/11/10 03:10:08;;;;;;;2.30;1.67;;;11.50;99.90;;;;;;5072978;28;20220;-84
2023/11/10 03:12:35;;;;;;;1.55;1.20;;;11.40;99.90;;;;;;5070966;28;20233;-79
2023/11/10 03:15:02;;;;;;;3.53;1.33;;;11.40;99.90;;;;;;5079315;28;20621;-79
2023/11/10 03:17:31;;;;;;;3.42;1.65;;;11.40;99.90;;;;;;5091734;28;20220;-82
2023/11/10 03:19:58;;;;;;;1.45;1.10;;;11.40;99.90;;;;;;5093111;28;20288;-85
2023/11/10 03:22:26;;;;;;;4.05;1.42;;;11.40;99.90;;;;;;5092742;28;20587;-81
2023/11/10 03:24:53;;;;;;;1.65;1.35;;;11.40;99.90;;;;;;5092368;28;20238;-81
2023/11/10 03:27:20;;;;;;;1.75;1.48;;;11.50;99.90;;;;;;5093012;28;20227;-81
2023/11/10 03:29:47;;;;;;;1.48;1.30;;;11.40;99.90;;;;;;5092694;28;20223;-79
2023/11/10 03:32:14;;;;;;;3.42;1.70;;;11.40;99.90;;;;;;5093006;28;20285;-78
2023/11/10 03:34:43;;;;;;;1.60;1.23;;;11.40;99.90;;;;;;5093821;28;20220;-79
2023/11/10 03:37:11;;;;;;;4.10;1.70;;;11.40;99.90;;;;;;5096808;28;20666;-78
2023/11/10 03:39:38;;;;;;;2.28;1.50;;;11.40;99.90;;;;;;5095962;28;20223;-78
2023/11/10 03:42:05;;;;;;;4.65;1.42;;;11.40;99.90;;;;;;5096243;28;20718;-79
2023/11/10 03:44:33;;;;;;;2.80;1.80;;;11.30;99.90;;;;;;5095896;28;20265;-79
2023/11/10 03:47:00;;;;;;;3.20;1.52;;;11.30;99.90;;;;;;5096287;28;20300;-78
2023/11/10 03:49:27;;;;;;;3.33;1.50;;;11.30;99.90;;;;;;5096530;28;20233;-78
2023/11/10 03:51:55;;;;;;;1.63;1.17;;;11.30;99.90;;;;;;5096117;28;20250;-81
2023/11/10 03:54:30;;;;;;;6.85;2.10;;;11.30;99.90;;;;;;5095810;28;20227;-82
2023/11/10 03:56:57;;;;;;;3.00;1.98;;;11.30;99.90;;;;;;5095950;28;20233;-82
2023/11/10 03:59:24;;;;;;;2.25;1.52;;;11.30;99.90;;;;;;5096551;28;20276;-82
2023/11/10 04:01:51;;;;;;;4.50;2.20;;;11.30;99.90;;;;;;5095474;28;20231;-83
2023/11/10 04:04:18;;;;;;;2.90;2.00;;;11.30;99.90;;;;;;5091268;28;20258;-83
2023/11/10 04:06:45;;;;;;;2.72;2.17;;;11.30;99.90;;;;;;5103599;28;20238;-79
2023/11/10 04:09:14;;;;;;;1.67;1.55;;;11.30;99.90;;;;;;5102783;28;20245;-83
2023/11/10 04:11:41;;;;;;;1.30;1.20;;;11.30;99.90;;;;;;5095111;28;20669;-82
2023/11/10 04:14:08;;;;;;;3.00;1.50;;;11.30;99.90;;;;;;5083185;28;20299;-79
2023/11/10 04:16:35;;;;;;;3.35;1.73;;;11.30;99.90;;;;;;5075071;28;20234;-79
2023/11/10 04:19:02;;;;;;;2.22;1.70;;;11.30;99.90;;;;;;5074852;28;20222;-78
2023/11/10 04:21:30;;;;;;;2.90;1.70;;;11.30;99.90;;;;;;5075632;28;20220;-79
2023/11/10 04:23:57;;;;;;;4.68;2.20;;;11.30;99.90;;;;;;5074480;28;20278;-83
2023/11/10 04:26:26;;;;;;;6.15;2.03;;;11.30;99.90;;;;;;5075258;28;20220;-79
2023/11/10 04:28:53;;;;;;;4.43;1.70;;;11.30;99.90;;;;;;5074984;28;20224;-78
2023/11/10 04:31:20;;;;;;;1.92;1.52;;;11.30;99.90;;;;;;5075412;28;20295;-83
2023/11/10 04:33:47;;;;;;;2.33;1.65;;;11.30;99.90;;;;;;5074714;28;20239;-83
2023/11/10 04:36:14;;;;;;;2.83;1.48;;;11.30;99.90;;;;;;5074505;28;20323;-83
2023/11/10 04:38:43;;;;;;;4.75;1.77;;;11.30;99.90;;;;;;5074640;28;20669;-83
2023/11/10 04:41:10;;;;;;;1.45;1.30;;;11.20;99.90;;;;;;5074942;28;20669;-79
2023/11/10 04:43:41;;;;;;;2.47;1.55;;;11.30;99.90;;;;;;5074346;28;20216;-79
2023/11/10 04:46:08;;;;;;;1.70;1.40;;;11.30;99.90;;;;;;5073545;28;20311;-79
2023/11/10 04:48:35;;;;;;;2.10;1.45;;;11.30;99.90;;;;;;5075125;28;20254;-83
2023/11/10 04:51:06;;;;;;;1.52;1.13;;;11.40;99.90;;;;;;5074129;28;20315;-83
2023/11/10 04:53:33;;;;;;;3.92;1.27;;;11.40;99.90;;;;;;5074847;28;20219;-83
2023/11/10 04:56:02;;;;;;;3.13;1.67;;;11.40;99.90;;;;;;5073636;28;20228;-82
2023/11/10 04:58:29;;;;;;;2.95;1.67;;;11.50;99.90;;;;;;5074760;28;20231;-84
2023/11/10 05:00:58;;;;;;;3.25;1.52;;;11.50;99.90;;;;;;5075102;28;20220;-83
2023/11/10 05:03:26;;;;;;;1.75;1.50;;;11.50;99.90;;;;;;5075318;28;20647;-83
2023/11/10 05:05:52;;;;;;;1.20;1.10;;;11.50;99.90;;;;;;5074539;28;20298;-83
2023/11/10 05:08:20;;;;;;;2.92;1.65;;;11.50;99.90;;;;;;5075058;28;20228;-83
2023/11/10 05:10:47;;;;;;;2.50;1.45;;;11.60;99.90;;;;;;5074254;28;20220;-83
2023/11/10 05:13:14;;;;;;;2.25;1.80;;;11.60;99.90;;;;;;5074629;28;20219;-79
2023/11/10 05:15:42;;;;;;;2.65;1.90;;;11.60;99.90;;;;;;5074558;28;20572;-79
2023/11/10 05:18:12;;;;;;;2.50;1.55;;;11.60;99.90;;;;;;5074202;28;20602;-78
2023/11/10 05:20:39;;;;;;;4.38;3.15;;;11.60;99.90;;;;;;5074447;28;20234;-78
2023/11/10 05:23:07;;;;;;;2.97;1.80;;;11.60;99.90;;;;;;5074082;28;20348;-79
2023/11/10 05:25:34;;;;;;;2.15;1.80;;;11.60;99.90;;;;;;5074138;28;20286;-78
2023/11/10 05:28:01;;;;;;;1.60;1.50;;;11.60;99.90;;;;;;5073747;28;20231;-79
2023/11/10 05:30:27;;;;;;;2.28;1.50;;;11.60;99.90;;;;;;5074071;28;20220;-78
2023/11/10 05:32:55;;;;;;;1.65;1.55;;;11.60;99.90;;;;;;5073797;28;20219;-78
2023/11/10 05:35:23;;;;;;;1.70;1.50;;;11.60;99.90;;;;;;5073461;28;20228;-79
2023/11/10 05:37:50;;;;;;;3.78;2.97;;;11.60;99.90;;;;;;5073515;28;20240;-78
2023/11/10 05:40:17;;;;;;;2.35;1.50;;;11.50;99.90;;;;;;5073972;28;20305;-78
2023/11/10 05:42:44;;;;;;;2.15;1.95;;;11.50;99.90;;;;;;5074090;28;20219;-78
2023/11/10 05:45:11;;;;;;;2.00;1.90;;;11.50;99.90;;;;;;5073690;28;20273;-78
2023/11/10 05:47:41;;;;;;;2.80;1.70;;;11.50;99.90;;;;;;5074407;28;20219;-84
2023/11/10 05:50:09;;;;;;;2.10;1.90;;;11.60;99.90;;;;;;5074041;28;20281;-83
2023/11/10 05:52:38;;;;;;;2.47;2.17;;;11.60;99.90;;;;;;5074641;28;20227;-83
2023/11/10 05:55:05;;;;;;;4.65;2.60;;;11.60;99.90;;;;;;5073860;28;20224;-83
2023/11/10 05:57:33;;;;;;;3.03;2.15;;;11.50;99.90;;;;;;5074165;28;20255;-83
2023/11/10 06:00:00;;;;;;;8.10;4.28;;;11.50;99.90;;;;;;5073557;28;20220;-79
2023/11/10 06:02:30;;;;;;;8.20;3.90;;;11.50;99.90;;;;;;5074005;28;20228;-78
2023/11/10 06:04:57;;;;;;;2.95;2.72;;;11.50;99.90;;;;;;5073807;28;20236;-83
2023/11/10 06:07:24;;;;;;;4.18;2.40;;;11.50;99.90;;;;;;5073596;28;20235;-78
2023/11/10 06:09:52;;;;;;;7.30;3.13;;;11.50;99.90;;;;;;5073060;28;20298;-79
2023/11/10 06:12:19;;;;;;;4.45;2.47;;;11.50;99.90;;;;;;5073899;28;20216;-78
2023/11/10 06:14:46;;;;;;;5.93;1.80;;;11.60;99.90;;;;;;5074274;28;20231;-79
2023/11/10 06:17:13;;;;;;;3.40;2.00;;;11.60;99.90;;;;;;5073532;28;20220;-79
2023/11/10 06:19:40;;;;;;;2.47;2.17;;;11.50;99.90;;;;;;5073739;28;20216;-79
2023/11/10 06:22:07;;;;;;;8.48;5.10;;;11.50;99.90;;;;;;5073514;28;20303;-83
2023/11/10 06:24:34;;;;;;;6.90;5.50;;;11.50;99.90;;;;;;5073792;28;20227;-79
2023/11/10 06:27:04;;;;;;;5.45;3.90;;;11.50;99.90;;;;;;5072659;28;20318;-79
2023/11/10 06:29:31;;;;;;;2.70;2.38;;;11.50;99.90;;;;;;5073832;28;20223;-78
2023/11/10 06:31:58;;;;;;;2.25;1.85;;;11.40;99.90;;;;;;5073519;28;20224;-82
2023/11/10 06:34:25;;;;;;;3.55;1.90;;;11.50;99.90;;;;;;5073974;28;20227;-78
2023/11/10 06:36:52;;;;;;;1.80;1.70;;;11.40;99.90;;;;;;5073270;28;20286;-78
2023/11/10 06:39:19;;;;;;;2.15;1.67;;;11.50;99.90;;;;;;5072832;28;20220;-78
2023/11/10 06:41:47;;;;;;;2.10;1.70;;;11.40;99.90;;;;;;5073259;28;20251;-79
2023/11/10 06:44:19;;;;;;;3.05;2.33;;;11.40;99.90;;;;;;5072896;28;20224;-80
2023/11/10 06:46:46;;;;;;;2.20;1.90;;;11.40;99.90;;;;;;5073033;28;20307;-83
2023/11/10 06:49:16;;;;;;;4.10;3.70;;;11.50;99.90;;;;;;5072322;28;20227;-83
2023/11/10 06:51:43;;;;;;;10.25;5.45;;;11.40;99.90;;;;;;5074608;28;20285;-79
2023/11/10 06:54:10;;;;;;;8.32;6.63;;;11.40;99.90;;;;;;5073163;28;20250;-79
2023/11/10 06:56:37;;;;;;;4.53;3.30;;;11.50;99.90;;;;;;5072877;28;20289;-80
2023/11/10 06:59:04;;;;;;;4.53;2.10;;;11.40;99.90;;;;;;5073428;28;20536;-84
2023/11/10 07:01:33;;;;;;;4.35;3.05;;;11.50;99.90;;;;;;5073126;28;20341;-83
2023/11/10 07:04:00;;;;;;;6.50;3.90;;;11.50;99.90;;;;;;5078475;28;20632;-79
2023/11/10 07:06:27;;;;;;;2.85;2.35;;;11.50;99.90;;;;;;5072895;28;20581;-82
2023/11/10 07:08:53;;;;;;;1.85;1.70;;;11.50;99.90;;;;;;5072765;28;20227;-83
2023/11/10 07:11:21;;;;;;;6.32;2.55;;;11.60;99.90;;;;;;5076890;28;20532;-78
2023/11/10 07:13:49;;;;;;;4.55;2.95;;;11.70;99.90;;;;;;5076161;28;20211;-78
2023/11/10 07:16:20;;;;;;;3.60;3.30;;;11.60;99.90;;;;;;5076885;28;20227;-82
2023/11/10 07:18:48;;;;;;;2.38;2.05;;;11.60;99.90;;;;;;5075898;28;20254;-82
2023/11/10 07:21:15;;;;;;;4.82;1.55;;;11.70;99.90;;;;;;5077262;28;20238;-82
2023/11/10 07:23:42;;;;;;;3.25;1.50;;;11.70;99.90;;;;;;5076223;28;20242;-83
2023/11/10 07:26:17;;;;;;;1.85;1.75;;;11.70;99.90;;;;;;5076207;28;20307;-83
2023/11/10 07:28:44;;;;;;;2.20;2.00;;;11.70;99.90;;;;;;5077086;28;20608;-82
2023/11/10 07:31:12;;;;;;;2.85;1.55;;;11.70;99.90;;;;;;5076149;28;20354;-82
2023/11/10 07:33:39;;;;;;;4.70;1.73;;;11.70;99.90;;;;;;5077063;28;20227;-82
2023/11/10 07:36:13;;;;;;;1.70;1.48;;;11.70;99.90;;;;;;5075822;28;20281;-82
2023/11/10 07:38:44;;;;;;;2.40;1.92;;;11.80;99.90;;;;;;5076856;28;20300;-82
2023/11/10 07:41:10;;;;;;;1.50;1.40;;;11.80;99.90;;;;;;5075791;28;20227;-82
2023/11/10 07:43:38;;;;;;;3.13;2.47;;;11.80;99.90;;;;;;5076845;28;20319;-83
2023/11/10 07:46:05;;;;;;;5.38;3.42;;;11.90;99.90;;;;;;5075984;28;20277;-82
2023/11/10 07:48:33;;;;;;;8.13;5.80;;;11.90;99.90;;;;;;5076780;28;20687;-82
2023/11/10 07:51:00;;;;;;;6.78;4.22;;;11.90;99.90;;;;;;5076278;28;20255;-82
2023/11/10 07:53:28;;;;;;;2.78;2.22;;;11.90;99.90;;;;;;5076589;28;20242;-83
2023/11/10 07:55:57;;;;;;;2.75;1.80;;;11.90;99.90;;;;;;5074764;28;20254;-82
2023/11/10 07:58:35;;;;;;;2.10;1.60;;;11.90;99.90;;;;;;5063205;28;20250;-82
2023/11/10 08:01:02;;;;;;;2.60;1.58;;;11.90;99.90;;;;;;5076205;28;20247;-78
2023/11/10 08:03:29;;;;;;;1.95;1.40;;;11.90;99.90;;;;;;5075853;28;20282;-78
2023/11/10 08:05:56;;;;;;;3.03;2.50;;;12.00;99.90;;;;;;5075121;28;20224;-79
2023/11/10 08:08:23;;;;;;;8.48;4.75;;;12.00;99.90;;;;;;5075973;28;20289;-79
2023/11/10 08:10:51;;;;;;;16.10;11.02;;;12.00;99.90;;;;;;5075493;28;20572;-79
2023/11/10 08:13:18;;;;;;;10.63;7.60;;;12.00;99.90;;;;;;5075965;28;20677;-83
2023/11/10 08:15:45;;;;;;;8.18;5.80;;;12.00;99.90;;;;;;5075887;28;20311;-83
2023/11/10 08:18:14;;;;;;;2.88;2.13;;;12.10;99.90;;;;;;5075864;28;20282;-84
2023/11/10 08:20:42;;;;;;;2.17;1.30;;;12.20;99.90;;;;;;5074637;28;20222;-83
2023/11/10 08:23:10;;;;;;;1.75;1.50;;;12.20;99.90;;;;;;5076035;28;20223;-83
2023/11/10 08:25:37;;;;;;;2.25;1.60;;;12.20;99.90;;;;;;5075541;28;20577;-83
2023/11/10 08:28:07;;;;;;;1.88;1.30;;;12.30;99.90;;;;;;5076079;28;20289;-83
2023/11/10 08:30:34;;;;;;;2.97;1.70;;;12.20;99.90;;;;;;5076172;28;20220;-83
2023/11/10 08:33:02;;;;;;;4.63;2.67;;;12.30;99.90;;;;;;5075459;28;20219;-80
2023/11/10 08:35:31;;;;;;;2.45;1.50;;;12.30;99.90;;;;;;5079838;28;20249;-79
2023/11/10 08:37:58;;;;;;;1.70;1.33;;;12.40;99.90;;;;;;5075751;28;20312;-83
2023/11/10 08:40:26;;;;;;;1.38;1.27;;;12.40;99.90;;;;;;5075666;28;20707;-83
2023/11/10 08:42:53;;;;;;;1.75;1.10;;;12.40;99.90;;;;;;5074948;28;20230;-79
2023/11/10 08:45:24;;;;;;;2.50;1.40;;;12.40;99.90;;;;;;5075156;28;20234;-79
2023/11/10 08:47:51;;;;;;;2.13;1.92;;;12.50;99.90;;;;;;5074449;28;20223;-79
2023/11/10 08:50:18;;;;;;;1.85;1.25;;;12.40;99.90;;;;;;5075099;28;20306;-78
2023/11/10 08:52:47;;;;;;;4.07;2.20;;;12.50;99.90;;;;;;5074204;28;20689;-78
2023/11/10 08:55:17;;;;;;;2.75;1.20;;;12.50;99.90;;;;;;5074309;28;20220;-78
2023/11/10 08:57:46;;;;;;;1.40;1.20;;;12.50;99.90;;;;;;5074719;28;20227;-78
2023/11/10 09:00:17;;;;;;;1.25;1.08;;;12.50;99.90;;;;;;5094379;28;20604;-77
2023/11/10 09:02:49;;;;;;;1.95;1.50;;;12.50;99.90;;;;;;5090333;28;20306;-78
2023/11/10 09:05:16;;;;;;;2.58;1.58;;;12.50;99.90;;;;;;5089070;28;20247;-78
2023/11/10 09:07:43;;;;;;;1.85;1.38;;;12.60;99.90;;;;;;5094223;28;20326;-78
2023/11/10 09:10:11;;;;;;;1.77;0.98;;;12.60;99.90;;;;;;5094536;28;20274;-79
2023/11/10 09:12:41;;;;;;;4.13;1.65;;;12.60;99.90;;;;;;5093989;28;20234;-79
2023/11/10 09:15:11;;;;;;;1.50;1.40;;;12.70;99.90;;;;;;5093884;28;20231;-78
2023/11/10 09:17:40;;;;;;;2.00;1.20;;;12.70;99.90;;;;;;5094584;28;20542;-79
2023/11/10 09:20:09;;;;;;;1.80;1.57;;;12.80;99.90;;;;;;5093550;28;20242;-82
2023/11/10 09:22:38;;;;;;;3.07;1.37;;;12.80;99.90;;;;;;5094596;28;21025;-82
2023/11/10 09:25:16;;;;;;;1.65;1.50;;;12.80;99.90;;;;;;5094235;28;20549;-82
2023/11/10 09:27:43;;;;;;;1.67;1.52;;;12.90;99.90;;;;;;5094937;28;20288;-82
2023/11/10 09:30:11;;;;;;;7.63;5.97;;;12.90;99.90;;;;;;5094821;28;20259;-82
2023/11/10 09:32:38;;;;;;;7.33;3.90;;;12.90;99.90;;;;;;5094781;28;20667;-81
2023/11/10 09:35:06;;;;;;;3.80;3.40;;;12.90;99.90;;;;;;5093793;28;21038;-82
2023/11/10 09:37:35;;;;;;;3.17;2.88;;;12.90;99.90;;;;;;5094350;28;20218;-82
2023/11/10 09:40:03;;;;;;;3.47;1.40;;;13.00;99.90;;;;;;5093763;28;20282;-82
2023/11/10 09:42:30;;;;;;;5.22;1.70;;;13.00;99.90;;;;;;5079937;28;20531;-82
2023/11/10 09:45:00;;;;;;;1.70;1.30;;;13.00;99.90;;;;;;5073610;28;20224;-82
2023/11/10 09:47:29;;;;;;;2.63;1.77;;;13.10;99.90;;;;;;5074542;28;20469;-82
2023/11/10 09:49:57;;;;;;;1.48;1.30;;;13.00;99.90;;;;;;5073772;28;20463;-82
2023/11/10 09:52:27;;;;;;;2.10;1.47;;;13.10;99.90;;;;;;5074452;28;20224;-82
2023/11/10 09:54:56;;;;;;;5.27;1.43;;;13.10;99.90;;;;;;5073612;28;20517;-82
2023/11/10 09:57:25;;;;;;;1.87;1.17;;;13.20;99.90;;;;;;5073828;28;20470;-83
2023/11/10 09:59:53;;;;;;;2.70;1.33;;;13.20;99.90;;;;;;5073767;28;20466;-82
2023/11/10 10:02:20;;;;;;;1.70;1.60;;;13.20;99.90;;;;;;5082542;28;20481;-83
2023/11/10 10:04:54;;;;;;;1.90;1.60;;;13.20;99.90;;;;;;5084175;28;20997;-78
2023/11/10 10:07:22;;;;;;;1.57;1.17;;;13.20;99.90;;;;;;5083356;28;20479;-78
2023/11/10 10:09:49;;;;;;;1.53;1.27;;;13.20;99.90;;;;;;5105799;28;20530;-78
2023/11/10 10:12:17;;;;;;;1.30;1.20;;;13.20;99.90;;;;;;5093537;28;20844;-78
2023/11/10 10:14:54;;;;;;;1.60;0.90;;;13.30;99.90;;;;;;5093673;28;20306;-78
2023/11/10 10:17:31;;;;;;;1.60;1.10;;;13.30;99.90;;;;;;5092692;28;20465;-78
2023/11/10 10:20:05;;;;;;;2.47;1.67;;;13.30;99.90;;;;;;5093984;28;20238;-79
2023/11/10 10:22:33;;;;;;;1.53;1.20;;;13.30;99.90;;;;;;5093542;28;20453;-79
2023/11/10 10:25:01;;;;;;;4.23;1.37;;;13.30;99.90;;;;;;5093511;28;20493;-78
2023/11/10 10:27:29;;;;;;;1.67;1.33;;;13.30;99.90;;;;;;5092996;28;20539;-79
2023/11/10 10:29:57;;;;;;;2.20;1.50;;;13.30;99.90;;;;;;5089209;28;20523;-79
2023/11/10 10:32:24;;;;;;;1.50;1.20;;;13.30;99.90;;;;;;5102429;28;20472;-79
2023/11/10 10:34:51;;;;;;;1.40;1.30;;;13.40;99.90;;;;;;5093546;28;20544;-78
2023/11/10 10:37:19;;;;;;;1.50;1.40;;;13.40;99.90;;;;;;5092714;28;20675;-79
2023/11/10 10:39:48;;;;;;;1.97;1.10;;;13.40;99.90;;;;;;5093238;28;20465;-79
2023/11/10 10:42:15;;;;;;;3.67;1.57;;;13.50;99.90;;;;;;5093257;28;20471;-83
2023/11/10 10:44:45;;;;;;;2.13;1.07;;;13.50;99.90;;;;;;5095926;28;20478;-83
2023/11/10 10:47:13;;;;;;;1.27;1.17;;;13.50;99.90;;;;;;5098707;28;20472;-80
2023/11/10 10:49:42;;;;;;;2.23;1.30;;;13.50;99.90;;;;;;5098260;28;21003;-79
2023/11/10 10:52:09;;;;;;;1.57;1.30;;;13.50;99.90;;;;;;5098292;28;20466;-79
2023/11/10 10:54:38;;;;;;;3.13;1.50;;;13.50;99.90;;;;;;5097307;28;20534;-79
2023/11/10 10:57:06;;;;;;;3.37;1.60;;;13.50;99.90;;;;;;5097984;28;20806;-79
2023/11/10 10:59:36;;;;;;;1.20;1.10;;;13.50;99.90;;;;;;5097499;28;20552;-79
2023/11/10 11:02:06;;;;;;;2.60;1.20;;;13.50;99.90;;;;;;5097934;28;20540;-79
2023/11/10 11:04:44;;;;;;;1.97;1.13;;;13.50;99.90;;;;;;5096733;28;20477;-78
2023/11/10 11:07:36;;;;;;;1.63;1.33;;;13.40;99.90;;;;;;5097615;28;20526;-79
2023/11/10 11:10:31;;;;;;;2.80;1.13;;;13.40;99.90;;;;;;5097936;28;20457;-79
2023/11/10 11:13:25;;;;;;;1.33;1.07;;;13.40;99.90;;;;;;5096857;28;20552;-79
2023/11/10 11:16:08;;;;;;;1.30;1.00;;;13.40;99.90;;;;;;5097246;28;20475;-79
2023/11/10 11:18:56;;;;;;;2.87;1.23;;;13.30;99.90;;;;;;5098074;28;20465;-79
2023/11/10 11:21:24;;;;;;;3.77;1.20;;;13.30;99.90;;;;;;5097384;28;20537;-83
2023/11/10 11:23:51;;;;;;;2.50;1.30;;;13.30;99.90;;;;;;5097386;28;20468;-79
2023/11/10 11:26:22;;;;;;;1.53;0.77;;;13.30;99.90;;;;;;5097824;28;21028;-79
2023/11/10 11:28:51;;;;;;;1.47;1.13;;;13.30;99.90;;;;;;5097863;28;20473;-79
2023/11/10 11:31:22;;;;;;;1.20;1.10;;;13.30;99.90;;;;;;5096989;28;20853;-79
2023/11/10 11:33:52;;;;;;;2.83;1.40;;;13.30;99.90;;;;;;5097082;28;20457;-78
2023/11/10 11:36:19;;;;;;;1.63;1.20;;;13.30;99.90;;;;;;5096410;28;20469;-79
2023/11/10 11:38:48;;;;;;;1.20;0.90;;;13.30;99.90;;;;;;5097167;28;20487;-78
2023/11/10 11:41:15;;;;;;;1.40;1.20;;;13.30;99.90;;;;;;5096950;28;20472;-78
2023/11/10 11:43:49;;;;;;;1.80;1.13;;;13.30;99.90;;;;;;5096359;28;20931;-78
2023/11/10 11:46:16;;;;;;;1.77;1.10;;;13.40;99.90;;;;;;5096864;28;20499;-78
2023/11/10 11:48:44;;;;;;;1.97;1.40;;;13.40;99.90;;;;;;5096688;28;20453;-79
2023/11/10 11:51:13;;;;;;;3.33;1.20;;;13.40;99.90;;;;;;5096628;28;20473;-79
2023/11/10 11:53:40;;;;;;;1.50;0.93;;;13.40;99.90;;;;;;5096012;28;20456;-79
2023/11/10 11:56:08;;;;;;;1.87;1.10;;;13.40;99.90;;;;;;5097017;28;20970;-82
2023/11/10 11:58:38;;;;;;;2.90;1.10;;;13.30;99.90;;;;;;5096549;28;20458;-83
2023/11/10 12:01:06;;;;;;;3.07;1.30;;;13.30;99.90;;;;;;5097691;28;20453;-83
2023/11/10 12:03:33;;;;;;;1.50;1.20;;;13.30;99.90;;;;;;5096849;28;20810;-83
2023/11/10 12:06:00;;;;;;;1.70;1.00;;;13.40;99.90;;;;;;5096737;28;20470;-79
2023/11/10 12:08:28;;;;;;;2.43;1.50;;;13.30;99.90;;;;;;5095782;28;20809;-79
2023/11/10 12:10:55;;;;;;;1.30;0.93;;;13.30;99.90;;;;;;5096703;28;20482;-78
2023/11/10 12:13:22;;;;;;;2.93;1.10;;;13.30;99.90;;;;;;5095818;28;20523;-78
2023/11/10 12:15:49;;;;;;;2.70;1.30;;;13.20;99.90;;;;;;5096714;28;20469;-80
2023/11/10 12:18:17;;;;;;;2.70;1.20;;;13.20;99.90;;;;;;5096521;28;20553;-79
2023/11/10 12:20:44;;;;;;;2.15;1.17;;;13.20;99.90;;;;;;5096012;28;20457;-79
2023/11/10 12:23:14;;;;;;;1.47;1.13;;;13.10;99.90;;;;;;5095949;28;20288;-79
2023/11/10 12:25:43;;;;;;;2.15;1.10;;;13.10;99.90;;;;;;5095872;28;20783;-79
2023/11/10 12:28:13;;;;;;;1.60;1.03;;;13.20;99.90;;;;;;5095871;28;20227;-79
2023/11/10 12:30:42;;;;;;;1.13;1.03;;;13.20;99.90;;;;;;5095959;28;20810;-83
2023/11/10 12:33:10;;;;;;;2.78;1.40;;;13.20;99.90;;;;;;5099094;28;20515;-84
2023/11/10 12:35:39;;;;;;;1.30;1.20;;;13.20;99.90;;;;;;5098511;28;20322;-83
2023/11/10 12:38:08;;;;;;;1.13;1.03;;;13.20;99.90;;;;;;5104312;28;20466;-80
2023/11/10 12:40:37;;;;;;;3.43;1.20;;;13.30;99.90;;;;;;5099300;28;20495;-77
2023/11/10 12:43:07;;;;;;;1.43;1.33;;;13.30;99.90;;;;;;5095950;28;20548;-78
2023/11/10 12:45:34;;;;;;;1.57;1.47;;;13.30;99.90;;;;;;5095621;28;20477;-78
2023/11/10 12:48:11;;;;;;;1.93;1.80;;;13.30;99.90;;;;;;5095564;28;20482;-79
2023/11/10 12:50:38;;;;;;;10.30;2.23;;;13.20;99.90;;;;;;5095446;28;20812;-79
2023/11/10 12:53:05;;;;;;;1.60;1.50;;;13.20;99.90;;;;;;5096137;28;20488;-80